Hovedside
METAR-TAF:

METAR-TAF

Lufthavner :

Haugesund, Norge

Haugesund lufthavn

breddegrad: 59-21N, lengdegrad: 005-13E, høyde over havet: 2 m

Gjeldene værobservasjon

Denne rapporten ble laget for 27 minutter siden, klokken 20:20 UTC
Vind 6 kt fra Nord, skiftende mellom Vest og Nord-nordøst
Temperatur 6°C
Luftfuktighet 93%
Trykk 1026 hPa
Sikt: 2000 m
Overskyet i en høyde av 200 ft
dis

METAR: ENHD 262020Z 36006KT 260V020 2000 BR OVC002 06/05 Q1026

Tid: 22:47 (20:47 UTC)

Varsel

Denne rapporten ble laget for 3 timer og 47 minutter siden, klokken 17:00 UTC
Varsel gyldig fra 26. klokken 18 UTC til 26. klokken 22 UTC
Vind 10 kt fra Nord-nordvest
Sikt 10 km eller mer
Få skyer i en høyde av 400 ft
Spredte skyer i en høyde av 1000 ft
Midlertidig
fra 26. klokken 18 UTC til 26. klokken 22 UTC
Sikt: 0500 m
i en høyde av 100 ft
tåke

TAF: ENHD 261700Z 2618/2622 34010KT 9999 FEW004 SCT010 TEMPO 2618/2622 0500 FG VV001

Værobservasjoner og værvarsel for over 4000 flyplasser (METAR- og TAF-rapporter).

Tilgjengelige stasjoner er representert av de røde og gule prikkene på kartet.

Hold musepekeren over prikken for å se navnet på stasjonen.

Klikk så for å se værobservasjoner og -varsler.

For å forandre kartet kan du klikke på den grønne knappen med svart kryss for å zoome inn, på den grønne knappen med strek for å zoome ut, eller på de grønne pilene for å se tilstøtende kart.


METAR-TAF: